Time;durP1;ratioP1;P1;durP2;ratioP2;P2;SDS_P1;SDS_P2;PMS_P1;PMS_P2;Temp;Humidity;BMP_temperature;BMP_pressure;BME280_temperature;BME280_humidity;BME280_pressure;Samples;Min_cycle;Max_cycle;Signal;HPM_P1;HPM_P2
2022/11/24 00:00:33;;;;;;;1.00;0.50;;;;;;;;;;5071955;28;20024;-64
2022/11/24 00:02:59;;;;;;;5.47;1.27;;;;;;;;;;5072318;28;20029;-65
2022/11/24 00:05:26;;;;;;;0.60;0.50;;;;;;;;;;5072757;28;20502;-65
2022/11/24 00:07:53;;;;;;;2.53;0.80;;;;;;;;;;5072275;28;20063;-65
2022/11/24 00:10:20;;;;;;;0.30;0.27;;;;;;;;;;5072466;28;20033;-65
2022/11/24 00:12:46;;;;;;;4.47;0.70;;;;;;;;;;5067390;28;20032;-65
2022/11/24 00:15:13;;;;;;;1.53;0.87;;;;;;;;;;5067651;28;20099;-66
2022/11/24 00:17:39;;;;;;;1.30;0.60;;;;;;;;;;5067489;28;20044;-65
2022/11/24 00:20:06;;;;;;;0.77;0.40;;;;;;;;;;5066860;28;20029;-65
2022/11/24 00:22:33;;;;;;;1.27;0.60;;;;;;;;;;5072618;28;20090;-65
2022/11/24 00:25:00;;;;;;;1.40;0.83;;;;;;;;;;5076803;28;20108;-65
2022/11/24 00:27:26;;;;;;;1.67;0.67;;;;;;;;;;5076473;28;20029;-65
2022/11/24 00:29:53;;;;;;;1.00;0.60;;;;;;;;;;5075990;28;20017;-65
2022/11/24 00:32:19;;;;;;;0.83;0.50;;;;;;;;;;5076518;28;20096;-65
2022/11/24 00:34:46;;;;;;;1.73;0.60;;;;;;;;;;5072424;28;20036;-65
2022/11/24 00:37:13;;;;;;;1.90;0.63;;;;;;;;;;5070951;28;20048;-64
2022/11/24 00:39:40;;;;;;;1.00;0.60;;;;;;;;;;5065450;28;20028;-65
2022/11/24 00:42:07;;;;;;;4.60;0.93;;;;;;;;;;5071163;28;20036;-65
2022/11/24 00:44:33;;;;;;;0.67;0.30;;;;;;;;;;5072644;28;20064;-65
2022/11/24 00:47:00;;;;;;;3.40;1.03;;;;;;;;;;5075220;28;20025;-65
2022/11/24 00:49:27;;;;;;;5.80;1.53;;;;;;;;;;5075951;28;20029;-65
2022/11/24 00:51:53;;;;;;;3.80;1.10;;;;;;;;;;5075129;28;20060;-64
2022/11/24 00:54:20;;;;;;;1.67;0.97;;;;;;;;;;5073691;28;20028;-65
2022/11/24 00:56:47;;;;;;;5.90;2.53;;;;;;;;;;5071392;28;20467;-64
2022/11/24 00:59:13;;;;;;;2.03;1.20;;;;;;;;;;5069562;28;20024;-65
2022/11/24 01:01:41;;;;;;;1.03;0.40;;;;;;;;;;5070084;28;20029;-65
2022/11/24 01:04:08;;;;;;;1.13;0.70;;;;;;;;;;5069559;28;20028;-64
2022/11/24 01:06:36;;;;;;;2.63;0.97;;;;;;;;;;5072034;28;20151;-65
2022/11/24 01:09:03;;;;;;;1.10;0.73;;;;;;;;;;5067082;28;20484;-65
2022/11/24 01:12:00;;;;;;;0.53;0.40;;;;;;;;;;5071489;28;20141;-65
2022/11/24 01:14:21;;;;;;;3.43;0.87;;;;;;;;;;5060883;28;20127;-64
2022/11/24 01:16:48;;;;;;;0.63;0.50;;;;;;;;;;5074834;28;20032;-65
2022/11/24 01:19:15;;;;;;;0.53;0.33;;;;;;;;;;5070964;28;20491;-65
2022/11/24 01:21:41;;;;;;;0.83;0.57;;;;;;;;;;5069339;28;20044;-66
2022/11/24 01:24:09;;;;;;;1.57;0.73;;;;;;;;;;5068260;28;20431;-64
2022/11/24 01:26:36;;;;;;;1.07;0.70;;;;;;;;;;5057832;28;20029;-64
2022/11/24 01:29:02;;;;;;;0.70;0.53;;;;;;;;;;5054160;28;20492;-64
2022/11/24 01:31:29;;;;;;;1.03;0.60;;;;;;;;;;5075014;28;20361;-64
2022/11/24 01:33:56;;;;;;;0.67;0.53;;;;;;;;;;5073564;28;20047;-64
2022/11/24 01:36:22;;;;;;;2.47;1.30;;;;;;;;;;5074956;28;20038;-64
2022/11/24 01:38:49;;;;;;;4.30;1.00;;;;;;;;;;5074562;28;20032;-64
2022/11/24 01:41:18;;;;;;;0.30;0.20;;;;;;;;;;5069077;28;20104;-65
2022/11/24 01:43:45;;;;;;;2.03;1.00;;;;;;;;;;5049275;28;20082;-64
2022/11/24 01:46:20;;;;;;;2.97;1.20;;;;;;;;;;5057608;28;20029;-64
2022/11/24 01:48:51;;;;;;;2.37;1.10;;;;;;;;;;5069145;28;20025;-64
2022/11/24 01:51:20;;;;;;;0.73;0.70;;;;;;;;;;5071814;28;20479;-63
2022/11/24 01:53:50;;;;;;;1.47;1.03;;;;;;;;;;5073965;28;20031;-62
2022/11/24 01:56:18;;;;;;;1.23;0.63;;;;;;;;;;5074358;28;20031;-62
2022/11/24 01:58:46;;;;;;;1.23;0.63;;;;;;;;;;5073757;28;20557;-62
2022/11/24 02:01:15;;;;;;;6.47;1.17;;;;;;;;;;5074241;28;20103;-62
2022/11/24 02:03:43;;;;;;;4.67;1.20;;;;;;;;;;5071215;28;20025;-62
2022/11/24 02:06:16;;;;;;;1.90;0.80;;;;;;;;;;5067822;28;20021;-62
2022/11/24 02:08:43;;;;;;;3.30;1.07;;;;;;;;;;5068874;28;20024;-61
2022/11/24 02:11:09;;;;;;;2.00;0.83;;;;;;;;;;5066726;28;20031;-62
2022/11/24 02:13:37;;;;;;;1.70;1.07;;;;;;;;;;5070725;28;20115;-61
2022/11/24 02:16:06;;;;;;;0.97;0.53;;;;;;;;;;5055919;28;20057;-56
2022/11/24 02:18:33;;;;;;;5.33;1.27;;;;;;;;;;5064334;28;20090;-60
2022/11/24 02:21:00;;;;;;;2.30;1.07;;;;;;;;;;5054755;28;20060;-57
2022/11/24 02:23:41;;;;;;;7.77;1.87;;;;;;;;;;5066993;28;20012;-60
2022/11/24 02:26:34;;;;;;;4.90;1.27;;;;;;;;;;5071260;28;20503;-57
2022/11/24 02:29:01;;;;;;;0.97;0.77;;;;;;;;;;5038591;28;20116;-60
2022/11/24 02:31:28;;;;;;;1.03;0.50;;;;;;;;;;5069005;28;20044;-57
2022/11/24 02:33:55;;;;;;;0.73;0.63;;;;;;;;;;5069192;28;20025;-56
2022/11/24 02:36:22;;;;;;;1.70;0.70;;;;;;;;;;5071623;28;20028;-62
2022/11/24 02:38:48;;;;;;;3.00;0.97;;;;;;;;;;5074183;28;21033;-60
2022/11/24 02:41:18;;;;;;;2.50;1.00;;;;;;;;;;5063194;28;20486;-62
2022/11/24 02:43:48;;;;;;;3.03;1.73;;;;;;;;;;5055738;28;20056;-62
2022/11/24 02:46:14;;;;;;;1.17;0.87;;;;;;;;;;5067159;28;20033;-64
2022/11/24 02:48:41;;;;;;;0.73;0.53;;;;;;;;;;5063092;28;20035;-63
2022/11/24 02:51:08;;;;;;;3.83;1.57;;;;;;;;;;5049406;28;20017;-63
2022/11/24 02:53:34;;;;;;;0.50;0.40;;;;;;;;;;5068873;28;20383;-62
2022/11/24 02:56:01;;;;;;;1.00;0.70;;;;;;;;;;5068453;28;20060;-64
2022/11/24 02:58:28;;;;;;;1.40;1.13;;;;;;;;;;5071530;28;20028;-62
2022/11/24 03:00:56;;;;;;;1.90;1.23;;;;;;;;;;5073956;28;20020;-61
2022/11/24 03:03:23;;;;;;;16.03;1.70;;;;;;;;;;5072635;28;20033;-62
2022/11/24 03:05:50;;;;;;;1.87;0.93;;;;;;;;;;5073166;28;20021;-62
2022/11/24 03:08:21;;;;;;;30.00;1.53;;;;;;;;;;5057653;28;20514;-64
2022/11/24 03:10:48;;;;;;;1.40;0.70;;;;;;;;;;5048010;28;20055;-63
2022/11/24 03:13:15;;;;;;;2.57;1.23;;;;;;;;;;5047198;28;20029;-60
2022/11/24 03:15:41;;;;;;;1.37;0.70;;;;;;;;;;5047071;28;20074;-62
2022/11/24 03:18:08;;;;;;;1.63;1.07;;;;;;;;;;5047117;28;20052;-63
2022/11/24 03:20:35;;;;;;;1.80;1.13;;;;;;;;;;5048946;28;20373;-62
2022/11/24 03:23:01;;;;;;;2.83;1.27;;;;;;;;;;5053069;28;20107;-63
2022/11/24 03:25:28;;;;;;;5.90;1.30;;;;;;;;;;5071214;28;20550;-62
2022/11/24 03:27:58;;;;;;;4.57;0.80;;;;;;;;;;5071432;28;20070;-63
2022/11/24 03:30:25;;;;;;;2.20;0.87;;;;;;;;;;5055247;28;20028;-63
2022/11/24 03:32:52;;;;;;;2.00;0.80;;;;;;;;;;5070610;28;20025;-62
2022/11/24 03:35:19;;;;;;;1.40;0.90;;;;;;;;;;5067619;28;20028;-62
2022/11/24 03:37:46;;;;;;;5.47;1.53;;;;;;;;;;5067978;28;20434;-62
2022/11/24 03:40:13;;;;;;;3.33;1.20;;;;;;;;;;5067866;28;20033;-63
2022/11/24 03:42:40;;;;;;;1.43;1.03;;;;;;;;;;5069737;28;20095;-62
2022/11/24 03:45:07;;;;;;;0.90;0.70;;;;;;;;;;5072760;28;20450;-62
2022/11/24 03:47:37;;;;;;;1.40;1.00;;;;;;;;;;5072698;28;20356;-64
2022/11/24 03:50:04;;;;;;;1.03;0.73;;;;;;;;;;5058220;28;20095;-62
2022/11/24 03:52:30;;;;;;;1.43;0.83;;;;;;;;;;5073021;28;20427;-62
2022/11/24 03:54:57;;;;;;;1.20;0.70;;;;;;;;;;5070565;28;20479;-63
2022/11/24 03:57:24;;;;;;;1.10;0.70;;;;;;;;;;5067032;28;20089;-62
2022/11/24 03:59:50;;;;;;;0.30;0.30;;;;;;;;;;5067887;28;20375;-62
2022/11/24 04:02:17;;;;;;;1.07;0.73;;;;;;;;;;5067363;28;20032;-63
2022/11/24 04:04:49;;;;;;;2.00;0.70;;;;;;;;;;5067257;28;20090;-63
2022/11/24 04:07:16;;;;;;;1.17;0.63;;;;;;;;;;5071136;28;20107;-63
2022/11/24 04:09:43;;;;;;;6.20;2.97;;;;;;;;;;5072725;28;20513;-62
2022/11/24 04:14:54;;;;;;;;;;;;;;;;;;5073162;28;20102;-62
2022/11/24 04:17:21;;;;;;;1.43;0.70;;;;;;;;;;5067492;28;20428;-61
2022/11/24 04:19:48;;;;;;;0.73;0.60;;;;;;;;;;5046288;28;20090;-62
2022/11/24 04:22:14;;;;;;;1.00;0.70;;;;;;;;;;5050201;28;20032;-61
2022/11/24 04:24:41;;;;;;;5.37;1.23;;;;;;;;;;5066202;28;20033;-61
2022/11/24 04:27:08;;;;;;;1.40;0.87;;;;;;;;;;5058589;28;20047;-56
2022/11/24 04:29:34;;;;;;;1.90;0.90;;;;;;;;;;5067794;28;20045;-61
2022/11/24 04:32:01;;;;;;;1.93;1.00;;;;;;;;;;5052590;28;20029;-61
2022/11/24 04:34:28;;;;;;;0.30;0.27;;;;;;;;;;5052578;28;20028;-61
2022/11/24 04:36:54;;;;;;;1.20;0.80;;;;;;;;;;5052626;28;20056;-61
2022/11/24 04:39:21;;;;;;;1.07;0.77;;;;;;;;;;5050307;28;20083;-61
2022/11/24 04:41:48;;;;;;;4.70;0.70;;;;;;;;;;5052556;28;20021;-61
2022/11/24 04:44:14;;;;;;;1.90;1.13;;;;;;;;;;5066974;28;20046;-61
2022/11/24 04:46:41;;;;;;;0.93;0.73;;;;;;;;;;5067234;28;20067;-61
2022/11/24 04:49:10;;;;;;;0.20;0.20;;;;;;;;;;5068239;28;20043;-61
2022/11/24 04:51:37;;;;;;;1.23;0.70;;;;;;;;;;5071727;28;20060;-61
2022/11/24 04:54:04;;;;;;;0.67;0.57;;;;;;;;;;5072364;28;20078;-61
2022/11/24 04:56:32;;;;;;;0.60;0.43;;;;;;;;;;5069717;28;20074;-61
2022/11/24 04:58:59;;;;;;;2.43;0.97;;;;;;;;;;5061235;28;20064;-62
2022/11/24 05:01:25;;;;;;;1.00;0.30;;;;;;;;;;5051846;28;20037;-62
2022/11/24 05:03:56;;;;;;;0.80;0.57;;;;;;;;;;5066758;28;20032;-62
2022/11/24 05:06:23;;;;;;;0.80;0.50;;;;;;;;;;5066673;28;20039;-62
2022/11/24 05:08:50;;;;;;;0.30;0.27;;;;;;;;;;5070020;28;20082;-62
2022/11/24 05:11:17;;;;;;;2.23;1.30;;;;;;;;;;5071330;28;20017;-55
2022/11/24 05:13:43;;;;;;;1.70;1.07;;;;;;;;;;5075613;28;20085;-61
2022/11/24 05:16:10;;;;;;;1.80;0.83;;;;;;;;;;5075420;28;20017;-61
2022/11/24 05:18:37;;;;;;;5.93;1.43;;;;;;;;;;5075194;28;20487;-59
2022/11/24 05:21:04;;;;;;;0.20;0.20;;;;;;;;;;5075258;28;20033;-55
2022/11/24 05:23:31;;;;;;;2.00;1.10;;;;;;;;;;5074538;28;20058;-60
2022/11/24 05:26:01;;;;;;;2.30;1.20;;;;;;;;;;5069926;28;20028;-58
2022/11/24 05:28:28;;;;;;;1.67;1.03;;;;;;;;;;5052237;28;20483;-58
2022/11/24 05:30:54;;;;;;;2.63;1.33;;;;;;;;;;5069513;28;20376;-61
2022/11/24 05:33:21;;;;;;;1.77;1.03;;;;;;;;;;5069448;28;20033;-58
2022/11/24 05:35:49;;;;;;;2.63;1.73;;;;;;;;;;5075147;28;20023;-58
2022/11/24 05:38:16;;;;;;;2.57;1.13;;;;;;;;;;5056972;28;20040;-59
2022/11/24 05:40:43;;;;;;;6.03;1.63;;;;;;;;;;5073966;28;20463;-61
2022/11/24 05:43:13;;;;;;;0.97;0.67;;;;;;;;;;5075086;28;20032;-59
2022/11/24 05:45:40;;;;;;;4.53;1.10;;;;;;;;;;5073977;28;20017;-61
2022/11/24 05:48:08;;;;;;;3.70;1.37;;;;;;;;;;5067850;28;20497;-61
2022/11/24 05:50:35;;;;;;;2.20;1.40;;;;;;;;;;5066572;28;20496;-61
2022/11/24 05:53:02;;;;;;;1.73;1.20;;;;;;;;;;5068661;28;20074;-61
2022/11/24 05:55:29;;;;;;;2.23;1.63;;;;;;;;;;5067934;28;20020;-61
2022/11/24 05:58:03;;;;;;;1.93;0.50;;;;;;;;;;5073504;28;20044;-61
2022/11/24 06:00:31;;;;;;;2.45;1.45;;;;;;;;;;5074161;28;20017;-61
2022/11/24 06:02:58;;;;;;;0.77;0.70;;;;;;;;;;5071071;28;20074;-61
2022/11/24 06:05:26;;;;;;;1.17;0.87;;;;;;;;;;5071338;28;20025;-60
2022/11/24 06:07:52;;;;;;;1.93;1.40;;;;;;;;;;5065585;28;20079;-61
2022/11/24 06:10:20;;;;;;;2.77;1.50;;;;;;;;;;5048780;28;20124;-61
2022/11/24 06:12:47;;;;;;;2.67;1.23;;;;;;;;;;5066561;28;20043;-62
2022/11/24 06:15:13;;;;;;;0.93;0.83;;;;;;;;;;5067073;28;20414;-62
2022/11/24 06:17:40;;;;;;;0.53;0.50;;;;;;;;;;5052962;28;20029;-63
2022/11/24 06:20:08;;;;;;;0.73;0.67;;;;;;;;;;5067275;28;20012;-63
2022/11/24 06:22:34;;;;;;;0.53;0.50;;;;;;;;;;5073958;28;20028;-62
2022/11/24 06:25:02;;;;;;;2.03;1.40;;;;;;;;;;5073911;28;20039;-62
2022/11/24 06:27:28;;;;;;;3.27;1.37;;;;;;;;;;5065825;28;20020;-63
2022/11/24 06:29:55;;;;;;;1.70;1.20;;;;;;;;;;5073065;28;20024;-64
2022/11/24 06:32:23;;;;;;;9.50;1.87;;;;;;;;;;5066018;28;20025;-64
2022/11/24 06:34:49;;;;;;;5.73;1.47;;;;;;;;;;5066344;28;20637;-63
2022/11/24 06:37:16;;;;;;;1.83;0.93;;;;;;;;;;5068022;28;20059;-63
2022/11/24 06:39:42;;;;;;;4.00;1.50;;;;;;;;;;5068116;28;20029;-63
2022/11/24 06:42:09;;;;;;;0.93;0.63;;;;;;;;;;5072399;28;20028;-63
2022/11/24 06:44:36;;;;;;;2.37;1.40;;;;;;;;;;5073010;28;20021;-63
2022/11/24 06:47:02;;;;;;;1.73;1.00;;;;;;;;;;5073506;28;20101;-63
2022/11/24 06:49:29;;;;;;;1.37;0.90;;;;;;;;;;5072981;28;20024;-63
2022/11/24 06:51:56;;;;;;;1.40;1.13;;;;;;;;;;5073379;28;20032;-63
2022/11/24 06:54:22;;;;;;;0.50;0.50;;;;;;;;;;5068333;28;20056;-63
2022/11/24 06:56:49;;;;;;;1.00;0.50;;;;;;;;;;5067826;28;20028;-63
2022/11/24 06:59:18;;;;;;;0.87;0.70;;;;;;;;;;5067625;28;20056;-65
2022/11/24 07:01:45;;;;;;;0.60;0.47;;;;;;;;;;5067263;28;20033;-63
2022/11/24 07:04:12;;;;;;;1.50;0.83;;;;;;;;;;5071689;28;20420;-63
2022/11/24 07:06:40;;;;;;;1.63;0.90;;;;;;;;;;5072668;28;20025;-63
2022/11/24 07:09:08;;;;;;;0.77;0.53;;;;;;;;;;5073138;28;20107;-63
2022/11/24 07:11:35;;;;;;;1.30;0.90;;;;;;;;;;5072775;28;20127;-63
2022/11/24 07:14:01;;;;;;;1.87;0.80;;;;;;;;;;5072768;28;20051;-63
2022/11/24 07:16:28;;;;;;;1.43;0.93;;;;;;;;;;5068015;28;20017;-63
2022/11/24 07:18:55;;;;;;;2.17;0.90;;;;;;;;;;5067276;28;20032;-63
2022/11/24 07:21:23;;;;;;;4.77;0.73;;;;;;;;;;5067091;28;20027;-63
2022/11/24 07:23:50;;;;;;;0.43;0.40;;;;;;;;;;5067372;28;20489;-63
2022/11/24 07:26:17;;;;;;;1.20;0.77;;;;;;;;;;5070667;28;20023;-63
2022/11/24 07:28:44;;;;;;;1.70;0.80;;;;;;;;;;5072611;28;20024;-63
2022/11/24 07:31:12;;;;;;;0.70;0.60;;;;;;;;;;5071501;28;20054;-65
2022/11/24 07:33:39;;;;;;;1.13;0.67;;;;;;;;;;5072748;28;20464;-63
2022/11/24 07:36:06;;;;;;;1.33;0.60;;;;;;;;;;5072521;28;20036;-63
2022/11/24 07:38:33;;;;;;;0.83;0.53;;;;;;;;;;5068510;28;20365;-62
2022/11/24 07:41:04;;;;;;;1.43;0.63;;;;;;;;;;5066987;28;20434;-64
2022/11/24 07:43:32;;;;;;;0.80;0.53;;;;;;;;;;5066687;28;20380;-63
2022/11/24 07:45:58;;;;;;;0.47;0.40;;;;;;;;;;5066807;28;20048;-65
2022/11/24 07:48:25;;;;;;;0.53;0.43;;;;;;;;;;5070161;28;20017;-63
2022/11/24 07:50:52;;;;;;;0.50;0.40;;;;;;;;;;5072357;28;20036;-63
2022/11/24 07:53:18;;;;;;;1.47;0.80;;;;;;;;;;5072397;28;20028;-63
2022/11/24 07:55:53;;;;;;;0.47;0.27;;;;;;;;;;5072215;28;20020;-63
2022/11/24 07:58:19;;;;;;;3.17;0.88;;;;;;;;;;5072007;28;20040;-63
2022/11/24 08:00:46;;;;;;;2.83;0.80;;;;;;;;;;5068515;28;20056;-63
2022/11/24 08:03:13;;;;;;;1.60;0.73;;;;;;;;;;5066273;28;20086;-63
2022/11/24 08:05:39;;;;;;;0.93;0.63;;;;;;;;;;5066773;28;20502;-63
2022/11/24 08:08:06;;;;;;;0.63;0.43;;;;;;;;;;5066564;28;20108;-63
2022/11/24 08:10:33;;;;;;;1.80;0.87;;;;;;;;;;5069574;28;20476;-63
2022/11/24 08:13:02;;;;;;;0.20;0.20;;;;;;;;;;5072263;28;20704;-63
2022/11/24 08:15:29;;;;;;;0.50;0.30;;;;;;;;;;5071891;28;20025;-63
2022/11/24 08:17:56;;;;;;;0.50;0.50;;;;;;;;;;5071506;28;20056;-64
2022/11/24 08:20:22;;;;;;;0.83;0.53;;;;;;;;;;5072172;28;20028;-63
2022/11/24 08:22:49;;;;;;;0.80;0.70;;;;;;;;;;5068291;28;20032;-63
2022/11/24 08:25:17;;;;;;;2.13;0.70;;;;;;;;;;5066738;28;20120;-63
2022/11/24 08:27:43;;;;;;;0.93;0.73;;;;;;;;;;5066409;28;20028;-63
2022/11/24 08:30:10;;;;;;;0.50;0.43;;;;;;;;;;5066694;28;20064;-63
2022/11/24 08:32:37;;;;;;;4.10;0.80;;;;;;;;;;5069151;28;20379;-63
2022/11/24 08:35:04;;;;;;;0.77;0.57;;;;;;;;;;5071396;28;20549;-63
2022/11/24 08:37:30;;;;;;;1.73;0.77;;;;;;;;;;5071757;28;20025;-63
2022/11/24 08:39:57;;;;;;;0.30;0.30;;;;;;;;;;5071445;28;20032;-63
2022/11/24 08:42:24;;;;;;;1.13;0.63;;;;;;;;;;5054992;28;20474;-63
2022/11/24 08:44:50;;;;;;;1.10;0.90;;;;;;;;;;5072947;28;20032;-63
2022/11/24 08:47:17;;;;;;;0.70;0.60;;;;;;;;;;5070265;28;20025;-63
2022/11/24 08:49:44;;;;;;;3.07;1.23;;;;;;;;;;5069803;28;20103;-65
2022/11/24 08:52:10;;;;;;;1.87;1.10;;;;;;;;;;5070026;28;20024;-62
2022/11/24 08:54:37;;;;;;;1.20;1.00;;;;;;;;;;5071839;28;20017;-63
2022/11/24 08:57:04;;;;;;;1.87;1.43;;;;;;;;;;5075381;28;20213;-63
2022/11/24 08:59:30;;;;;;;8.00;1.30;;;;;;;;;;5075351;28;20036;-63
2022/11/24 09:01:57;;;;;;;3.70;1.33;;;;;;;;;;5075221;28;20017;-62
2022/11/24 09:04:23;;;;;;;0.70;0.50;;;;;;;;;;5075412;28;20374;-63
2022/11/24 09:06:50;;;;;;;0.80;0.70;;;;;;;;;;5072648;28;20495;-64
2022/11/24 09:09:17;;;;;;;1.73;1.23;;;;;;;;;;5069712;28;20024;-63
2022/11/24 09:11:43;;;;;;;1.87;1.20;;;;;;;;;;5069729;28;20342;-63
2022/11/24 09:14:10;;;;;;;0.80;0.53;;;;;;;;;;5069363;28;20107;-63
2022/11/24 09:16:37;;;;;;;1.40;1.00;;;;;;;;;;5071167;28;20479;-62
2022/11/24 09:19:05;;;;;;;1.93;0.83;;;;;;;;;;5074941;28;20502;-62
2022/11/24 09:21:38;;;;;;;0.80;0.67;;;;;;;;;;5075011;28;20024;-62
2022/11/24 09:24:08;;;;;;;0.40;0.33;;;;;;;;;;5074814;28;20024;-62
2022/11/24 09:26:35;;;;;;;1.63;0.80;;;;;;;;;;5075020;28;20153;-63
2022/11/24 09:29:03;;;;;;;2.13;1.13;;;;;;;;;;5072634;28;20031;-62
2022/11/24 09:31:33;;;;;;;0.47;0.47;;;;;;;;;;5069064;28;20403;-62
2022/11/24 09:33:59;;;;;;;0.53;0.43;;;;;;;;;;5069161;28;20115;-63
2022/11/24 09:36:27;;;;;;;1.00;0.83;;;;;;;;;;5069179;28;20028;-65
2022/11/24 09:38:53;;;;;;;5.30;1.93;;;;;;;;;;5070769;28;20064;-62
2022/11/24 09:41:24;;;;;;;0.80;0.77;;;;;;;;;;5074676;28;20483;-63
2022/11/24 09:43:58;;;;;;;1.23;0.97;;;;;;;;;;5074791;28;20074;-63
2022/11/24 09:46:40;;;;;;;0.57;0.57;;;;;;;;;;5074647;28;20475;-62
2022/11/24 09:49:09;;;;;;;3.70;0.97;;;;;;;;;;5074212;28;20348;-63
2022/11/24 09:51:37;;;;;;;1.20;0.63;;;;;;;;;;5071571;28;20032;-62
2022/11/24 09:54:09;;;;;;;1.30;0.60;;;;;;;;;;5067899;28;20024;-63
2022/11/24 09:56:39;;;;;;;0.60;0.57;;;;;;;;;;5068794;28;20063;-62
2022/11/24 09:59:35;;;;;;;2.47;1.13;;;;;;;;;;5068556;28;20500;-63
2022/11/24 10:02:01;;;;;;;1.38;0.77;;;;;;;;;;5050734;28;20040;-63
2022/11/24 10:04:30;;;;;;;0.60;0.43;;;;;;;;;;5074280;28;20078;-62
2022/11/24 10:07:11;;;;;;;1.97;0.83;;;;;;;;;;5074173;28;20025;-62
2022/11/24 10:09:38;;;;;;;0.77;0.63;;;;;;;;;;5074149;28;20027;-62
2022/11/24 10:12:08;;;;;;;0.53;0.47;;;;;;;;;;5074185;28;20025;-62
2022/11/24 10:14:43;;;;;;;0.83;0.60;;;;;;;;;;5069641;28;20475;-63
2022/11/24 10:17:09;;;;;;;;;;;;;;;;;;5069112;28;20549;-63
2022/11/24 10:19:45;;;;;;;0.60;0.43;;;;;;;;;;5068127;28;19913;-63
2022/11/24 10:22:47;;;;;;;0.60;0.60;;;;;;;;;;5068403;28;20112;-63
2022/11/24 10:25:17;;;;;;;2.50;0.80;;;;;;;;;;4972941;28;20027;-62
2022/11/24 10:27:45;;;;;;;0.87;0.57;;;;;;;;;;5055601;28;20079;-62
2022/11/24 10:30:19;;;;;;;1.13;0.83;;;;;;;;;;5073611;28;20024;-63
2022/11/24 10:32:47;;;;;;;2.42;0.82;;;;;;;;;;5073737;28;20066;-62
2022/11/24 10:35:14;;;;;;;1.80;0.73;;;;;;;;;;5072783;28;20021;-63
2022/11/24 10:37:45;;;;;;;0.50;0.30;;;;;;;;;;5068153;28;20060;-63
2022/11/24 10:40:14;;;;;;;1.13;0.80;;;;;;;;;;5067470;28;20043;-63
2022/11/24 10:42:42;;;;;;;5.20;1.50;;;;;;;;;;5068001;28;20025;-63
2022/11/24 10:45:13;;;;;;;0.80;0.70;;;;;;;;;;5067814;28;20376;-63
2022/11/24 10:47:41;;;;;;;4.47;0.83;;;;;;;;;;5073267;28;20471;-62
2022/11/24 10:50:19;;;;;;;0.93;0.70;;;;;;;;;;5073191;28;20017;-63
2022/11/24 10:52:58;;;;;;;1.10;0.80;;;;;;;;;;5072677;28;20025;-63
2022/11/24 10:55:24;;;;;;;0.23;0.20;;;;;;;;;;5073276;28;20100;-63
2022/11/24 10:57:51;;;;;;;0.83;0.67;;;;;;;;;;5071471;28;20060;-62
2022/11/24 11:00:21;;;;;;;0.83;0.70;;;;;;;;;;5067564;28;20077;-62
2022/11/24 11:02:49;;;;;;;0.40;0.40;;;;;;;;;;5067146;28;20488;-62
2022/11/24 11:05:40;;;;;;;0.57;0.57;;;;;;;;;;5066866;28;20028;-62
2022/11/24 11:08:25;;;;;;;0.90;0.70;;;;;;;;;;5069357;28;20024;-63
2022/11/24 11:11:12;;;;;;;0.93;0.63;;;;;;;;;;5072884;28;20027;-65
2022/11/24 11:13:50;;;;;;;2.17;1.50;;;;;;;;;;5052959;28;20480;-62
2022/11/24 11:16:26;;;;;;;1.33;0.83;;;;;;;;;;5052951;28;20039;-62
2022/11/24 11:18:53;;;;;;;0.87;0.47;;;;;;;;;;5052440;28;20029;-63
2022/11/24 11:21:28;;;;;;;0.53;0.53;;;;;;;;;;5048197;28;20037;-63
2022/11/24 11:23:55;;;;;;;1.35;0.95;;;;;;;;;;5047427;28;20059;-63
2022/11/24 11:26:21;;;;;;;0.97;0.60;;;;;;;;;;5047217;28;20029;-62
2022/11/24 11:28:58;;;;;;;0.40;0.40;;;;;;;;;;5047190;28;20039;-62
2022/11/24 11:31:25;;;;;;;0.93;0.67;;;;;;;;;;5067300;28;20020;-62
2022/11/24 11:33:55;;;;;;;0.37;0.27;;;;;;;;;;5072529;28;20025;-62
2022/11/24 11:36:22;;;;;;;0.53;0.50;;;;;;;;;;5072530;28;20059;-62
2022/11/24 11:38:49;;;;;;;1.17;0.40;;;;;;;;;;5072359;28;20086;-62
2022/11/24 11:41:20;;;;;;;1.27;0.63;;;;;;;;;;5072483;28;20103;-62
2022/11/24 11:43:50;;;;;;;0.63;0.60;;;;;;;;;;5067597;28;20479;-63
2022/11/24 11:46:17;;;;;;;0.40;0.40;;;;;;;;;;5066759;28;20051;-64
2022/11/24 11:48:45;;;;;;;0.77;0.70;;;;;;;;;;5066884;28;20029;-62
2022/11/24 11:51:18;;;;;;;2.53;0.83;;;;;;;;;;5066543;28;20024;-62
2022/11/24 11:53:48;;;;;;;0.70;0.50;;;;;;;;;;5071500;28;20028;-62
2022/11/24 11:56:17;;;;;;;0.90;0.57;;;;;;;;;;5072155;28;20475;-63
2022/11/24 11:58:53;;;;;;;0.80;0.57;;;;;;;;;;5071735;28;20029;-63
2022/11/24 12:01:19;;;;;;;1.30;0.30;;;;;;;;;;5072219;28;20081;-62
2022/11/24 12:04:10;;;;;;;0.40;0.40;;;;;;;;;;5072256;28;20154;-62
2022/11/24 12:06:50;;;;;;;0.30;0.23;;;;;;;;;;5066260;28;20463;-62
2022/11/24 12:09:23;;;;;;;0.83;0.70;;;;;;;;;;5066801;28;20013;-62
2022/11/24 12:12:03;;;;;;;0.77;0.57;;;;;;;;;;5066377;28;20024;-63
2022/11/24 12:14:48;;;;;;;0.77;0.53;;;;;;;;;;5067668;28;20403;-62
2022/11/24 12:17:35;;;;;;;0.85;0.47;;;;;;;;;;5072650;28;20028;-62
2022/11/24 12:20:07;;;;;;;2.83;1.07;;;;;;;;;;5076176;28;20078;-62
2022/11/24 12:22:33;;;;;;;5.30;1.13;;;;;;;;;;5075977;28;20020;-63
2022/11/24 12:25:15;;;;;;;0.23;0.23;;;;;;;;;;5058154;28;20374;-63
2022/11/24 12:27:53;;;;;;;2.43;1.17;;;;;;;;;;5072538;28;20017;-62
2022/11/24 12:30:21;;;;;;;0.63;0.53;;;;;;;;;;5070270;28;20043;-63
2022/11/24 12:32:58;;;;;;;0.83;0.63;;;;;;;;;;5070146;28;20040;-62
2022/11/24 12:35:43;;;;;;;0.40;0.30;;;;;;;;;;5070468;28;20028;-63
2022/11/24 12:38:15;;;;;;;1.35;0.93;;;;;;;;;;5074604;28;20494;-62
2022/11/24 12:40:57;;;;;;;0.50;0.50;;;;;;;;;;5075912;28;20027;-62
2022/11/24 12:43:33;;;;;;;0.67;0.40;;;;;;;;;;5075672;28;20028;-63
2022/11/24 12:46:16;;;;;;;0.97;0.70;;;;;;;;;;5075776;28;20029;-63
2022/11/24 12:48:48;;;;;;;2.00;1.10;;;;;;;;;;5074867;28;20705;-63
2022/11/24 12:51:19;;;;;;;0.60;0.60;;;;;;;;;;5069715;28;20070;-62
2022/11/24 12:53:50;;;;;;;0.83;0.60;;;;;;;;;;5070159;28;20434;-62
2022/11/24 12:56:20;;;;;;;1.17;0.97;;;;;;;;;;5070034;28;20247;-62
2022/11/24 12:59:02;;;;;;;0.90;0.57;;;;;;;;;;5070546;28;20368;-62
2022/11/24 13:01:32;;;;;;;1.33;1.17;;;;;;;;;;5075369;28;20028;-63
2022/11/24 13:04:02;;;;;;;3.33;1.60;;;;;;;;;;5075270;28;20357;-62
2022/11/24 13:06:35;;;;;;;5.47;1.60;;;;;;;;;;5075286;28;20086;-63
2022/11/24 13:09:11;;;;;;;2.40;1.57;;;;;;;;;;5075279;28;20028;-63
2022/11/24 13:11:42;;;;;;;2.00;1.10;;;;;;;;;;5072293;28;20031;-63
2022/11/24 13:14:11;;;;;;;7.13;2.23;;;;;;;;;;5069930;28;20029;-62
2022/11/24 13:16:48;;;;;;;3.53;2.00;;;;;;;;;;5069516;28;20523;-63
2022/11/24 13:19:19;;;;;;;1.13;0.90;;;;;;;;;;5069604;28;20075;-62
2022/11/24 13:21:51;;;;;;;4.50;1.77;;;;;;;;;;5071955;28;20030;-63
2022/11/24 13:24:18;;;;;;;1.00;0.90;;;;;;;;;;5075021;28;20020;-63
2022/11/24 13:26:46;;;;;;;2.50;1.70;;;;;;;;;;5074860;28;20024;-63
2022/11/24 13:29:28;;;;;;;6.70;1.53;;;;;;;;;;5074812;28;20455;-63
2022/11/24 13:31:55;;;;;;;1.97;1.53;;;;;;;;;;5074478;28;20021;-63
2022/11/24 13:34:48;;;;;;;2.50;1.20;;;;;;;;;;5070516;28;20082;-63
2022/11/24 13:37:24;;;;;;;2.57;1.73;;;;;;;;;;5069308;28;20098;-63
2022/11/24 13:39:52;;;;;;;13.23;1.87;;;;;;;;;;5069065;28;20089;-63
2022/11/24 13:42:20;;;;;;;2.40;1.00;;;;;;;;;;5068864;28;20016;-63
2022/11/24 13:44:48;;;;;;;1.90;1.20;;;;;;;;;;5073384;28;20028;-63
2022/11/24 13:47:34;;;;;;;18.20;1.90;;;;;;;;;;5074844;28;20032;-63
2022/11/24 13:50:24;;;;;;;3.87;1.37;;;;;;;;;;5054937;28;20021;-63
2022/11/24 13:53:06;;;;;;;2.70;1.43;;;;;;;;;;5056980;28;20044;-63
2022/11/24 13:55:35;;;;;;;1.27;0.97;;;;;;;;;;5062838;28;20028;-61
2022/11/24 13:58:01;;;;;;;3.93;1.33;;;;;;;;;;5068747;28;20036;-61
2022/11/24 14:00:30;;;;;;;1.00;0.63;;;;;;;;;;5068760;28;20046;-61
2022/11/24 14:03:23;;;;;;;1.20;0.83;;;;;;;;;;5068421;28;20046;-61
2022/11/24 14:05:53;;;;;;;4.97;1.10;;;;;;;;;;5059659;28;20483;-61
2022/11/24 14:08:30;;;;;;;2.13;0.93;;;;;;;;;;5055961;28;20457;-61
2022/11/24 14:10:58;;;;;;;3.70;1.30;;;;;;;;;;5074172;28;20020;-61
2022/11/24 14:13:33;;;;;;;11.67;1.50;;;;;;;;;;5074074;28;20021;-61
2022/11/24 14:16:06;;;;;;;1.70;1.10;;;;;;;;;;5074134;28;20468;-62
2022/11/24 14:18:34;;;;;;;1.43;1.00;;;;;;;;;;5068840;28;20032;-61
2022/11/24 14:21:20;;;;;;;2.67;1.33;;;;;;;;;;5068434;28;20060;-61
2022/11/24 14:23:49;;;;;;;2.67;1.27;;;;;;;;;;5051779;28;20502;-61
2022/11/24 14:26:21;;;;;;;1.07;0.90;;;;;;;;;;5067994;28;20029;-61
2022/11/24 14:28:48;;;;;;;0.80;0.70;;;;;;;;;;5071551;28;20353;-62
2022/11/24 14:31:24;;;;;;;3.93;1.40;;;;;;;;;;5073264;28;20029;-61
2022/11/24 14:34:06;;;;;;;14.67;2.13;;;;;;;;;;5073424;28;20055;-61
2022/11/24 14:36:33;;;;;;;1.57;0.87;;;;;;;;;;5073166;28;20459;-62
2022/11/24 14:38:59;;;;;;;0.70;0.57;;;;;;;;;;5072651;28;20040;-61
2022/11/24 14:41:27;;;;;;;1.03;0.77;;;;;;;;;;5068194;28;20534;-61
2022/11/24 14:44:08;;;;;;;3.20;1.37;;;;;;;;;;5068095;28;20033;-62
2022/11/24 14:46:35;;;;;;;2.30;1.40;;;;;;;;;;5067963;28;20344;-61
2022/11/24 14:49:03;;;;;;;2.23;1.37;;;;;;;;;;5067987;28;20029;-62
2022/11/24 14:51:32;;;;;;;1.90;0.97;;;;;;;;;;5066179;28;20031;-61
2022/11/24 14:54:00;;;;;;;2.20;1.40;;;;;;;;;;5068674;28;20071;-62
2022/11/24 14:56:37;;;;;;;2.73;1.27;;;;;;;;;;5063296;28;20037;-61
2022/11/24 14:59:04;;;;;;;1.80;0.93;;;;;;;;;;5053166;28;20040;-62